sensor_id;sensor_type;location;lat;lon;timestamp;P1;durP1;ratioP1;P2;durP2;ratioP2
4857;SDS011;58975;51.978;8.472;2022-10-18T00:00:56;15.48;;;10.38;;
4857;SDS011;58975;51.978;8.472;2022-10-18T00:05:52;19.15;;;12.70;;
4857;SDS011;58975;51.978;8.472;2022-10-18T00:10:49;20.67;;;13.77;;
4857;SDS011;58975;51.978;8.472;2022-10-18T00:16:04;23.98;;;14.63;;
4857;SDS011;58975;51.978;8.472;2022-10-18T00:21:08;29.13;;;17.45;;
4857;SDS011;58975;51.978;8.472;2022-10-18T00:26:09;23.33;;;13.40;;
4857;SDS011;58975;51.978;8.472;2022-10-18T00:31:29;21.80;;;13.85;;
4857;SDS011;58975;51.978;8.472;2022-10-18T00:36:28;20.20;;;12.18;;
4857;SDS011;58975;51.978;8.472;2022-10-18T00:41:26;19.83;;;11.18;;
4857;SDS011;58975;51.978;8.472;2022-10-18T00:46:25;20.10;;;13.38;;
4857;SDS011;58975;51.978;8.472;2022-10-18T00:51:28;29.85;;;16.20;;
4857;SDS011;58975;51.978;8.472;2022-10-18T00:56:29;30.33;;;18.17;;
4857;SDS011;58975;51.978;8.472;2022-10-18T01:01:27;26.92;;;17.48;;
4857;SDS011;58975;51.978;8.472;2022-10-18T01:06:24;31.60;;;16.98;;
4857;SDS011;58975;51.978;8.472;2022-10-18T01:11:29;30.10;;;16.50;;
4857;SDS011;58975;51.978;8.472;2022-10-18T01:27:02;33.67;;;18.23;;
4857;SDS011;58975;51.978;8.472;2022-10-18T01:32:26;31.02;;;18.23;;
4857;SDS011;58975;51.978;8.472;2022-10-18T01:37:27;27.40;;;17.42;;
4857;SDS011;58975;51.978;8.472;2022-10-18T01:42:26;22.05;;;14.00;;
4857;SDS011;58975;51.978;8.472;2022-10-18T01:47:23;31.13;;;18.65;;
4857;SDS011;58975;51.978;8.472;2022-10-18T01:52:20;27.00;;;15.87;;
4857;SDS011;58975;51.978;8.472;2022-10-18T01:57:36;46.72;;;18.33;;
4857;SDS011;58975;51.978;8.472;2022-10-18T02:07:51;22.20;;;13.52;;
4857;SDS011;58975;51.978;8.472;2022-10-18T02:13:15;30.38;;;17.40;;
4857;SDS011;58975;51.978;8.472;2022-10-18T02:18:20;27.58;;;15.80;;
4857;SDS011;58975;51.978;8.472;2022-10-18T02:23:22;30.30;;;17.33;;
4857;SDS011;58975;51.978;8.472;2022-10-18T02:28:21;21.25;;;12.57;;
4857;SDS011;58975;51.978;8.472;2022-10-18T02:38:41;28.73;;;16.60;;
4857;SDS011;58975;51.978;8.472;2022-10-18T02:43:41;31.33;;;19.05;;
4857;SDS011;58975;51.978;8.472;2022-10-18T02:48:37;31.73;;;18.27;;
4857;SDS011;58975;51.978;8.472;2022-10-18T02:53:33;34.67;;;17.55;;
4857;SDS011;58975;51.978;8.472;2022-10-18T02:58:30;43.42;;;20.13;;
4857;SDS011;58975;51.978;8.472;2022-10-18T03:03:26;33.15;;;18.08;;
4857;SDS011;58975;51.978;8.472;2022-10-18T03:08:23;21.17;;;13.38;;
4857;SDS011;58975;51.978;8.472;2022-10-18T03:13:19;20.60;;;12.43;;
4857;SDS011;58975;51.978;8.472;2022-10-18T03:18:16;17.35;;;11.65;;
4857;SDS011;58975;51.978;8.472;2022-10-18T03:23:12;33.38;;;17.80;;
4857;SDS011;58975;51.978;8.472;2022-10-18T03:28:09;28.42;;;17.30;;
4857;SDS011;58975;51.978;8.472;2022-10-18T03:33:05;31.10;;;17.75;;
4857;SDS011;58975;51.978;8.472;2022-10-18T03:38:02;33.10;;;18.48;;
4857;SDS011;58975;51.978;8.472;2022-10-18T03:42:58;27.80;;;16.27;;
4857;SDS011;58975;51.978;8.472;2022-10-18T03:47:54;30.95;;;17.17;;
4857;SDS011;58975;51.978;8.472;2022-10-18T03:52:51;29.52;;;17.15;;
4857;SDS011;58975;51.978;8.472;2022-10-18T04:02:45;21.83;;;14.38;;
4857;SDS011;58975;51.978;8.472;2022-10-18T04:07:45;20.50;;;13.10;;
4857;SDS011;58975;51.978;8.472;2022-10-18T04:12:42;26.95;;;16.05;;
4857;SDS011;58975;51.978;8.472;2022-10-18T04:17:38;22.65;;;13.93;;
4857;SDS011;58975;51.978;8.472;2022-10-18T04:22:34;29.77;;;15.10;;
4857;SDS011;58975;51.978;8.472;2022-10-18T04:27:31;29.40;;;16.63;;
4857;SDS011;58975;51.978;8.472;2022-10-18T04:32:28;24.85;;;15.70;;
4857;SDS011;58975;51.978;8.472;2022-10-18T04:37:24;26.88;;;14.88;;
4857;SDS011;58975;51.978;8.472;2022-10-18T04:42:21;27.55;;;14.60;;
4857;SDS011;58975;51.978;8.472;2022-10-18T04:47:18;22.95;;;13.38;;
4857;SDS011;58975;51.978;8.472;2022-10-18T04:52:14;22.83;;;14.07;;
4857;SDS011;58975;51.978;8.472;2022-10-18T04:57:10;23.10;;;14.77;;
4857;SDS011;58975;51.978;8.472;2022-10-18T05:02:07;24.10;;;14.57;;
4857;SDS011;58975;51.978;8.472;2022-10-18T05:07:03;21.17;;;13.35;;
4857;SDS011;58975;51.978;8.472;2022-10-18T05:16:57;24.35;;;13.45;;
4857;SDS011;58975;51.978;8.472;2022-10-18T05:21:54;22.75;;;12.75;;
4857;SDS011;58975;51.978;8.472;2022-10-18T05:26:50;24.73;;;14.50;;
4857;SDS011;58975;51.978;8.472;2022-10-18T05:31:47;21.88;;;13.07;;
4857;SDS011;58975;51.978;8.472;2022-10-18T05:36:44;21.60;;;12.68;;
4857;SDS011;58975;51.978;8.472;2022-10-18T05:41:40;18.60;;;11.43;;
4857;SDS011;58975;51.978;8.472;2022-10-18T05:46:37;17.95;;;11.40;;
4857;SDS011;58975;51.978;8.472;2022-10-18T05:51:33;20.98;;;12.77;;
4857;SDS011;58975;51.978;8.472;2022-10-18T05:56:29;18.80;;;11.52;;
4857;SDS011;58975;51.978;8.472;2022-10-18T06:01:26;18.23;;;11.80;;
4857;SDS011;58975;51.978;8.472;2022-10-18T06:06:22;21.88;;;12.27;;
4857;SDS011;58975;51.978;8.472;2022-10-18T06:11:19;20.65;;;12.18;;
4857;SDS011;58975;51.978;8.472;2022-10-18T06:16:16;17.30;;;11.70;;
4857;SDS011;58975;51.978;8.472;2022-10-18T06:21:15;21.33;;;11.57;;
4857;SDS011;58975;51.978;8.472;2022-10-18T06:26:12;17.30;;;11.25;;
4857;SDS011;58975;51.978;8.472;2022-10-18T06:31:08;19.73;;;11.48;;
4857;SDS011;58975;51.978;8.472;2022-10-18T06:36:07;18.60;;;10.90;;
4857;SDS011;58975;51.978;8.472;2022-10-18T06:41:06;21.15;;;10.68;;
4857;SDS011;58975;51.978;8.472;2022-10-18T06:46:04;22.35;;;9.82;;
4857;SDS011;58975;51.978;8.472;2022-10-18T06:51:04;24.38;;;10.60;;
4857;SDS011;58975;51.978;8.472;2022-10-18T06:56:02;16.48;;;10.35;;
4857;SDS011;58975;51.978;8.472;2022-10-18T07:01:09;17.80;;;9.93;;
4857;SDS011;58975;51.978;8.472;2022-10-18T07:06:08;22.10;;;10.07;;
4857;SDS011;58975;51.978;8.472;2022-10-18T07:11:06;18.00;;;10.23;;
4857;SDS011;58975;51.978;8.472;2022-10-18T07:21:14;16.90;;;10.20;;
4857;SDS011;58975;51.978;8.472;2022-10-18T07:26:13;16.60;;;10.07;;
4857;SDS011;58975;51.978;8.472;2022-10-18T07:31:10;16.40;;;8.82;;
4857;SDS011;58975;51.978;8.472;2022-10-18T07:36:08;19.67;;;10.00;;
4857;SDS011;58975;51.978;8.472;2022-10-18T07:41:07;18.00;;;10.55;;
4857;SDS011;58975;51.978;8.472;2022-10-18T07:46:05;22.60;;;10.65;;
4857;SDS011;58975;51.978;8.472;2022-10-18T07:51:02;14.80;;;9.05;;
4857;SDS011;58975;51.978;8.472;2022-10-18T07:56:03;18.58;;;9.60;;
4857;SDS011;58975;51.978;8.472;2022-10-18T08:01:05;22.58;;;11.38;;
4857;SDS011;58975;51.978;8.472;2022-10-18T08:06:05;21.17;;;11.43;;
4857;SDS011;58975;51.978;8.472;2022-10-18T08:11:05;26.92;;;12.18;;
4857;SDS011;58975;51.978;8.472;2022-10-18T08:16:05;20.73;;;12.57;;
4857;SDS011;58975;51.978;8.472;2022-10-18T08:21:04;31.65;;;14.95;;
4857;SDS011;58975;51.978;8.472;2022-10-18T08:26:05;25.65;;;15.30;;
4857;SDS011;58975;51.978;8.472;2022-10-18T08:31:05;28.02;;;14.93;;
4857;SDS011;58975;51.978;8.472;2022-10-18T08:36:04;26.45;;;14.68;;
4857;SDS011;58975;51.978;8.472;2022-10-18T08:41:13;26.45;;;15.38;;
4857;SDS011;58975;51.978;8.472;2022-10-18T08:46:18;34.47;;;15.98;;
4857;SDS011;58975;51.978;8.472;2022-10-18T08:51:17;29.63;;;16.23;;
4857;SDS011;58975;51.978;8.472;2022-10-18T09:01:24;27.03;;;14.57;;
4857;SDS011;58975;51.978;8.472;2022-10-18T09:11:57;43.85;;;19.67;;
4857;SDS011;58975;51.978;8.472;2022-10-18T09:17:22;48.13;;;20.38;;
4857;SDS011;58975;51.978;8.472;2022-10-18T09:22:30;51.00;;;22.35;;
4857;SDS011;58975;51.978;8.472;2022-10-18T09:38:20;44.13;;;21.48;;
4857;SDS011;58975;51.978;8.472;2022-10-18T09:43:23;42.35;;;20.65;;
4857;SDS011;58975;51.978;8.472;2022-10-18T09:48:26;41.05;;;17.20;;
4857;SDS011;58975;51.978;8.472;2022-10-18T09:53:29;28.48;;;15.88;;
4857;SDS011;58975;51.978;8.472;2022-10-18T10:03:37;36.53;;;19.60;;
4857;SDS011;58975;51.978;8.472;2022-10-18T10:13:31;52.92;;;25.27;;
4857;SDS011;58975;51.978;8.472;2022-10-18T10:18:28;44.67;;;22.08;;
4857;SDS011;58975;51.978;8.472;2022-10-18T10:23:29;50.95;;;23.88;;
4857;SDS011;58975;51.978;8.472;2022-10-18T10:28:35;59.15;;;23.67;;
4857;SDS011;58975;51.978;8.472;2022-10-18T10:33:38;61.65;;;27.45;;
4857;SDS011;58975;51.978;8.472;2022-10-18T10:38:35;49.20;;;24.52;;
4857;SDS011;58975;51.978;8.472;2022-10-18T10:43:32;56.58;;;26.05;;
4857;SDS011;58975;51.978;8.472;2022-10-18T10:48:40;50.85;;;24.25;;
4857;SDS011;58975;51.978;8.472;2022-10-18T10:53:37;47.67;;;25.42;;
4857;SDS011;58975;51.978;8.472;2022-10-18T10:58:38;56.72;;;24.58;;
4857;SDS011;58975;51.978;8.472;2022-10-18T11:03:36;52.00;;;24.73;;
4857;SDS011;58975;51.978;8.472;2022-10-18T11:08:41;53.00;;;24.40;;
4857;SDS011;58975;51.978;8.472;2022-10-18T11:19:06;36.53;;;18.52;;
4857;SDS011;58975;51.978;8.472;2022-10-18T11:24:24;39.33;;;17.52;;
4857;SDS011;58975;51.978;8.472;2022-10-18T11:50:32;27.60;;;12.07;;
4857;SDS011;58975;51.978;8.472;2022-10-18T12:01:00;24.13;;;12.45;;
4857;SDS011;58975;51.978;8.472;2022-10-18T12:06:11;28.50;;;11.52;;
4857;SDS011;58975;51.978;8.472;2022-10-18T12:11:13;23.08;;;10.38;;
4857;SDS011;58975;51.978;8.472;2022-10-18T12:16:13;26.48;;;12.23;;
4857;SDS011;58975;51.978;8.472;2022-10-18T12:21:10;25.75;;;10.95;;
4857;SDS011;58975;51.978;8.472;2022-10-18T12:26:08;26.52;;;10.63;;
4857;SDS011;58975;51.978;8.472;2022-10-18T12:41:19;17.08;;;7.03;;
4857;SDS011;58975;51.978;8.472;2022-10-18T12:46:18;15.07;;;5.47;;
4857;SDS011;58975;51.978;8.472;2022-10-18T12:51:18;14.02;;;6.05;;
4857;SDS011;58975;51.978;8.472;2022-10-18T13:01:51;16.38;;;5.78;;
4857;SDS011;58975;51.978;8.472;2022-10-18T13:17:11;15.43;;;4.47;;
4857;SDS011;58975;51.978;8.472;2022-10-18T13:27:48;10.73;;;3.65;;
4857;SDS011;58975;51.978;8.472;2022-10-18T13:33:06;7.32;;;2.78;;
4857;SDS011;58975;51.978;8.472;2022-10-18T13:38:22;8.48;;;2.72;;
4857;SDS011;58975;51.978;8.472;2022-10-18T13:48:51;6.95;;;2.80;;
4857;SDS011;58975;51.978;8.472;2022-10-18T14:09:22;7.28;;;2.42;;
4857;SDS011;58975;51.978;8.472;2022-10-18T14:24:55;13.10;;;1.67;;
4857;SDS011;58975;51.978;8.472;2022-10-18T14:35:16;5.60;;;1.98;;
4857;SDS011;58975;51.978;8.472;2022-10-18T14:40:29;5.13;;;2.20;;
4857;SDS011;58975;51.978;8.472;2022-10-18T14:45:34;8.50;;;1.42;;
4857;SDS011;58975;51.978;8.472;2022-10-18T14:50:30;7.70;;;2.17;;
4857;SDS011;58975;51.978;8.472;2022-10-18T14:55:27;18.23;;;2.78;;
4857;SDS011;58975;51.978;8.472;2022-10-18T15:00:34;9.48;;;2.25;;
4857;SDS011;58975;51.978;8.472;2022-10-18T15:05:32;10.88;;;2.95;;
4857;SDS011;58975;51.978;8.472;2022-10-18T15:10:29;6.88;;;1.98;;
4857;SDS011;58975;51.978;8.472;2022-10-18T15:15:28;2.70;;;1.13;;
4857;SDS011;58975;51.978;8.472;2022-10-18T15:20:29;6.65;;;1.58;;
4857;SDS011;58975;51.978;8.472;2022-10-18T15:25:27;10.77;;;1.83;;
4857;SDS011;58975;51.978;8.472;2022-10-18T15:30:38;14.43;;;1.70;;
4857;SDS011;58975;51.978;8.472;2022-10-18T15:35:38;5.47;;;1.43;;
4857;SDS011;58975;51.978;8.472;2022-10-18T15:40:34;4.32;;;1.23;;
4857;SDS011;58975;51.978;8.472;2022-10-18T15:45:33;5.82;;;1.10;;
4857;SDS011;58975;51.978;8.472;2022-10-18T15:50:47;4.65;;;1.10;;
4857;SDS011;58975;51.978;8.472;2022-10-18T15:55:47;2.78;;;1.08;;
4857;SDS011;58975;51.978;8.472;2022-10-18T16:00:45;3.80;;;0.98;;
4857;SDS011;58975;51.978;8.472;2022-10-18T16:05:43;6.35;;;0.93;;
4857;SDS011;58975;51.978;8.472;2022-10-18T16:10:40;6.60;;;1.05;;
4857;SDS011;58975;51.978;8.472;2022-10-18T16:15:36;4.32;;;1.58;;
4857;SDS011;58975;51.978;8.472;2022-10-18T16:20:33;4.47;;;1.02;;
4857;SDS011;58975;51.978;8.472;2022-10-18T16:25:29;6.78;;;1.25;;
4857;SDS011;58975;51.978;8.472;2022-10-18T16:30:25;17.48;;;2.08;;
4857;SDS011;58975;51.978;8.472;2022-10-18T16:35:26;3.30;;;1.23;;
4857;SDS011;58975;51.978;8.472;2022-10-18T16:40:23;2.65;;;1.10;;
4857;SDS011;58975;51.978;8.472;2022-10-18T16:45:20;5.00;;;1.17;;
4857;SDS011;58975;51.978;8.472;2022-10-18T16:50:17;2.42;;;1.83;;
4857;SDS011;58975;51.978;8.472;2022-10-18T16:55:16;7.43;;;1.63;;
4857;SDS011;58975;51.978;8.472;2022-10-18T17:00:20;7.93;;;1.70;;
4857;SDS011;58975;51.978;8.472;2022-10-18T17:05:18;7.70;;;1.55;;
4857;SDS011;58975;51.978;8.472;2022-10-18T17:10:17;3.78;;;1.50;;
4857;SDS011;58975;51.978;8.472;2022-10-18T17:15:14;6.10;;;1.58;;
4857;SDS011;58975;51.978;8.472;2022-10-18T17:20:15;6.18;;;1.70;;
4857;SDS011;58975;51.978;8.472;2022-10-18T17:25:17;8.85;;;2.30;;
4857;SDS011;58975;51.978;8.472;2022-10-18T17:30:14;12.65;;;2.95;;
4857;SDS011;58975;51.978;8.472;2022-10-18T17:40:09;12.27;;;2.13;;
4857;SDS011;58975;51.978;8.472;2022-10-18T17:45:05;5.97;;;1.73;;
4857;SDS011;58975;51.978;8.472;2022-10-18T17:50:02;3.25;;;2.20;;
4857;SDS011;58975;51.978;8.472;2022-10-18T17:54:59;9.82;;;2.20;;
4857;SDS011;58975;51.978;8.472;2022-10-18T17:59:56;7.90;;;1.98;;
4857;SDS011;58975;51.978;8.472;2022-10-18T18:04:53;4.82;;;1.75;;
4857;SDS011;58975;51.978;8.472;2022-10-18T18:09:50;3.72;;;1.55;;
4857;SDS011;58975;51.978;8.472;2022-10-18T18:14:46;4.63;;;1.90;;
4857;SDS011;58975;51.978;8.472;2022-10-18T18:19:43;2.88;;;1.90;;
4857;SDS011;58975;51.978;8.472;2022-10-18T18:24:39;5.65;;;2.05;;
4857;SDS011;58975;51.978;8.472;2022-10-18T18:29:36;10.60;;;2.15;;
4857;SDS011;58975;51.978;8.472;2022-10-18T18:34:32;4.50;;;2.17;;
4857;SDS011;58975;51.978;8.472;2022-10-18T18:39:29;6.03;;;2.22;;
4857;SDS011;58975;51.978;8.472;2022-10-18T18:44:30;4.15;;;1.92;;
4857;SDS011;58975;51.978;8.472;2022-10-18T18:49:28;6.20;;;3.00;;
4857;SDS011;58975;51.978;8.472;2022-10-18T18:54:26;6.33;;;3.33;;
4857;SDS011;58975;51.978;8.472;2022-10-18T18:59:24;4.03;;;2.80;;
4857;SDS011;58975;51.978;8.472;2022-10-18T19:04:21;5.43;;;3.25;;
4857;SDS011;58975;51.978;8.472;2022-10-18T19:09:17;6.28;;;2.92;;
4857;SDS011;58975;51.978;8.472;2022-10-18T19:14:16;5.15;;;2.35;;
4857;SDS011;58975;51.978;8.472;2022-10-18T19:19:20;6.97;;;2.28;;
4857;SDS011;58975;51.978;8.472;2022-10-18T19:24:18;7.28;;;1.92;;
4857;SDS011;58975;51.978;8.472;2022-10-18T19:29:17;13.27;;;2.60;;
4857;SDS011;58975;51.978;8.472;2022-10-18T19:34:18;4.60;;;2.30;;
4857;SDS011;58975;51.978;8.472;2022-10-18T19:39:17;9.82;;;2.47;;
4857;SDS011;58975;51.978;8.472;2022-10-18T19:44:15;4.15;;;2.75;;
4857;SDS011;58975;51.978;8.472;2022-10-18T19:49:13;3.23;;;2.40;;
4857;SDS011;58975;51.978;8.472;2022-10-18T19:54:10;3.28;;;2.50;;
4857;SDS011;58975;51.978;8.472;2022-10-18T19:59:08;8.55;;;2.90;;
4857;SDS011;58975;51.978;8.472;2022-10-18T20:04:06;8.00;;;3.47;;
4857;SDS011;58975;51.978;8.472;2022-10-18T20:09:07;6.33;;;2.83;;
4857;SDS011;58975;51.978;8.472;2022-10-18T20:14:05;7.90;;;2.75;;
4857;SDS011;58975;51.978;8.472;2022-10-18T20:19:05;6.53;;;2.88;;
4857;SDS011;58975;51.978;8.472;2022-10-18T20:24:02;4.90;;;2.45;;
4857;SDS011;58975;51.978;8.472;2022-10-18T20:29:00;4.30;;;2.40;;
4857;SDS011;58975;51.978;8.472;2022-10-18T20:33:57;26.58;;;2.85;;
4857;SDS011;58975;51.978;8.472;2022-10-18T20:38:55;3.65;;;2.67;;
4857;SDS011;58975;51.978;8.472;2022-10-18T20:43:53;5.00;;;2.42;;
4857;SDS011;58975;51.978;8.472;2022-10-18T20:48:52;8.43;;;2.55;;
4857;SDS011;58975;51.978;8.472;2022-10-18T20:53:49;3.95;;;2.42;;
4857;SDS011;58975;51.978;8.472;2022-10-18T20:58:47;6.97;;;2.75;;
4857;SDS011;58975;51.978;8.472;2022-10-18T21:03:45;5.72;;;2.30;;
4857;SDS011;58975;51.978;8.472;2022-10-18T21:08:43;5.27;;;3.00;;
4857;SDS011;58975;51.978;8.472;2022-10-18T21:13:40;5.82;;;3.30;;
4857;SDS011;58975;51.978;8.472;2022-10-18T21:18:37;6.18;;;3.65;;
4857;SDS011;58975;51.978;8.472;2022-10-18T21:28:31;5.63;;;2.85;;
4857;SDS011;58975;51.978;8.472;2022-10-18T21:33:28;8.20;;;2.60;;
4857;SDS011;58975;51.978;8.472;2022-10-18T21:38:25;4.63;;;2.78;;
4857;SDS011;58975;51.978;8.472;2022-10-18T21:43:21;6.75;;;4.25;;
4857;SDS011;58975;51.978;8.472;2022-10-18T21:48:17;16.63;;;7.38;;
4857;SDS011;58975;51.978;8.472;2022-10-18T21:53:14;12.27;;;5.82;;
4857;SDS011;58975;51.978;8.472;2022-10-18T21:58:11;7.22;;;4.10;;
4857;SDS011;58975;51.978;8.472;2022-10-18T22:03:08;7.05;;;3.42;;
4857;SDS011;58975;51.978;8.472;2022-10-18T22:08:06;7.22;;;2.85;;
4857;SDS011;58975;51.978;8.472;2022-10-18T22:13:02;5.28;;;3.10;;
4857;SDS011;58975;51.978;8.472;2022-10-18T22:17:59;6.55;;;2.97;;
4857;SDS011;58975;51.978;8.472;2022-10-18T22:22:55;5.45;;;3.05;;
4857;SDS011;58975;51.978;8.472;2022-10-18T22:27:52;10.90;;;3.38;;
4857;SDS011;58975;51.978;8.472;2022-10-18T22:32:48;9.38;;;3.55;;
4857;SDS011;58975;51.978;8.472;2022-10-18T22:37:44;7.18;;;2.83;;
4857;SDS011;58975;51.978;8.472;2022-10-18T22:42:41;10.73;;;3.55;;
4857;SDS011;58975;51.978;8.472;2022-10-18T22:47:37;7.20;;;3.92;;
4857;SDS011;58975;51.978;8.472;2022-10-18T22:52:33;10.75;;;3.95;;
4857;SDS011;58975;51.978;8.472;2022-10-18T22:57:30;5.50;;;3.40;;
4857;SDS011;58975;51.978;8.472;2022-10-18T23:02:27;6.10;;;3.25;;
4857;SDS011;58975;51.978;8.472;2022-10-18T23:07:23;11.98;;;3.53;;
4857;SDS011;58975;51.978;8.472;2022-10-18T23:12:19;6.45;;;3.08;;
4857;SDS011;58975;51.978;8.472;2022-10-18T23:17:16;8.55;;;3.53;;
4857;SDS011;58975;51.978;8.472;2022-10-18T23:22:12;6.97;;;3.05;;
4857;SDS011;58975;51.978;8.472;2022-10-18T23:27:11;13.98;;;3.22;;
4857;SDS011;58975;51.978;8.472;2022-10-18T23:32:08;9.25;;;3.63;;
4857;SDS011;58975;51.978;8.472;2022-10-18T23:37:05;8.05;;;3.38;;
4857;SDS011;58975;51.978;8.472;2022-10-18T23:42:01;11.25;;;3.45;;
4857;SDS011;58975;51.978;8.472;2022-10-18T23:46:57;7.40;;;2.85;;
4857;SDS011;58975;51.978;8.472;2022-10-18T23:51:54;5.07;;;2.90;;
4857;SDS011;58975;51.978;8.472;2022-10-18T23:56:50;14.45;;;5.68;;
